Weather History for Novato, CA

Change the Weather History Date:

Monday, March 10, 2014

  Actual Average (KAPC) Record (KAPC)
Temperature  
Mean Temperature 60 °F 52 °F  
Max Temperature 68 °F 63 °F 85 °F (2004)
Min Temperature 53 °F 40 °F 27 °F (2009)
Degree Days  
Heating Degree Days 4    
Month to date heating degree days  
Since 1 July heating degree days  
Cooling Degree Days 0    
Month to date cooling degree days  
Year to date cooling degree days  
Growing Degree Days 10 (Base 50)    
Moisture  
Dew Point 46 °F    
Average Humidity 63    
Maximum Humidity 94    
Minimum Humidity 35    
Precipitation  
Precipitation 0.00 in - 2.35 in (1986)
Month to date precipitation  
Year to date precipitation  
Since 1 July precipitation  
Sea Level Pressure  
Sea Level Pressure 30.18 in    
Wind  
Wind Speed 7 mph (NW)    
Max Wind Speed 17 mph    
Max Gust Speed 25 mph    
Visibility 10 miles    
Events Rain    
T = Trace of Precipitation, MM = Missing Value Source: NWS Daily Summary

Daily Weather History Graph

Daily Weather History Graph

Search for Another Location

Airport:

Trip Planner

Search our weather history database for the weather conditions in past years. The results will help you decide how hot, cold, wet, or windy it might be!

Date:

Astronomy

Mar. 10, 2014 Rise Set
Actual Time 7:28 AM PDT 7:12 PM PDT
Civil Twilight 7:02 AM PDT 7:38 PM PDT
Nautical Twilight 6:31 AM PDT 8:09 PM PDT
Astronomical Twilight 6:01 AM PDT 8:40 PM PDT
Moon 2:04 PM PDT (3/10) 3:40 AM PDT (3/10)
Length of Visible Light 12h 36m
Length of Day
11h 43m
Waxing Gibbous, 71% of the Moon is Illuminated
Mar 10
Waxing Gibbous
Mar 16
Full
Mar 23
Last Quarter
Mar 30
New
Apr 7
First Quarter

Hourly Weather History & Observations

Time (PDT) Temp. Dew Point Humidity Pressure Visibility Wind Dir Wind Speed Gust Speed Precip Events Conditions
12:15 AM 55.4 °F 48.2 °F 77% 30.11 in 10.0 mi NE 4.6 mph - N/A   Partly Cloudy
12:35 AM 55.4 °F 48.2 °F 77% 30.11 in 10.0 mi Calm Calm - N/A   Partly Cloudy
12:55 AM 55.4 °F 48.2 °F 77% 30.11 in 10.0 mi Calm Calm - N/A   Partly Cloudy
1:15 AM 55.4 °F 50.0 °F 82% 30.11 in 10.0 mi Calm Calm - N/A   Mostly Cloudy
1:35 AM 57.2 °F 50.0 °F 77% 30.11 in 10.0 mi Calm Calm - N/A   Overcast
1:55 AM 59.0 °F 55.4 °F 88% 30.10 in 10.0 mi WSW 10.4 mph - N/A   Overcast
2:20 AM 59.0 °F 55.4 °F 88% 30.11 in 10.0 mi WSW 8.1 mph - N/A   Overcast
2:35 AM 59.0 °F 55.4 °F 88% 30.11 in 10.0 mi WSW 9.2 mph - N/A   Mostly Cloudy
2:55 AM 59.0 °F 55.4 °F 88% 30.11 in 10.0 mi WSW 9.2 mph - N/A   Mostly Cloudy
3:15 AM 57.2 °F 55.4 °F 94% 30.11 in 5.0 mi WSW 8.1 mph - N/A   Mostly Cloudy
3:35 AM 57.2 °F 55.4 °F 94% 30.11 in 7.0 mi WSW 8.1 mph - N/A   Overcast
3:55 AM 57.2 °F 55.4 °F 94% 30.12 in 5.0 mi WNW 15.0 mph - N/A   Overcast
4:15 AM 55.4 °F 53.6 °F 94% 30.12 in 5.0 mi NNW 17.3 mph 25.3 mph N/A Rain Light Rain
4:35 AM 55.4 °F 51.8 °F 88% 30.12 in 10.0 mi NW 10.4 mph 16.1 mph N/A   Overcast
4:55 AM 55.4 °F 50.0 °F 82% 30.13 in 10.0 mi NW 9.2 mph - N/A   Overcast
5:15 AM 55.4 °F 50.0 °F 82% 30.12 in 10.0 mi NW 10.4 mph - N/A   Overcast
5:35 AM 55.4 °F 48.2 °F 77% 30.12 in 10.0 mi NW 12.7 mph - N/A   Overcast
5:55 AM 55.4 °F 48.2 °F 77% 30.13 in 10.0 mi NW 11.5 mph - N/A   Overcast
6:15 AM 55.4 °F 48.2 °F 77% 30.14 in 10.0 mi WNW 8.1 mph - N/A   Overcast
6:35 AM 55.4 °F 48.2 °F 77% 30.15 in 10.0 mi Calm Calm - N/A   Overcast
6:55 AM 55.4 °F 48.2 °F 77% 30.15 in 10.0 mi WSW 5.8 mph - N/A   Mostly Cloudy
7:15 AM 55.4 °F 48.2 °F 77% 30.16 in 10.0 mi West 6.9 mph - N/A   Partly Cloudy
7:35 AM 55.4 °F 46.4 °F 72% 30.17 in 10.0 mi WNW 6.9 mph - N/A   Clear
7:55 AM 55.4 °F 46.4 °F 72% 30.18 in 10.0 mi WNW 6.9 mph - N/A   Clear
8:15 AM 55.4 °F 46.4 °F 72% 30.19 in 10.0 mi NW 9.2 mph - N/A   Clear
8:35 AM 55.4 °F 48.2 °F 77% 30.21 in 10.0 mi NW 9.2 mph - N/A   Clear
8:55 AM 55.4 °F 48.2 °F 77% 30.21 in 10.0 mi WNW 11.5 mph - N/A   Clear
9:15 AM 57.2 °F 46.4 °F 67% 30.23 in 10.0 mi WNW 11.5 mph - N/A   Clear
9:35 AM 57.2 °F 46.4 °F 67% 30.23 in 10.0 mi NNW 11.5 mph 16.1 mph N/A   Clear
9:55 AM 59.0 °F 46.4 °F 63% 30.24 in 10.0 mi NNW 12.7 mph 17.3 mph N/A   Clear
10:15 AM 59.0 °F 46.4 °F 63% 30.25 in 10.0 mi NW 12.7 mph 18.4 mph N/A   Clear
10:35 AM 59.0 °F 46.4 °F 63% 30.25 in 10.0 mi NNW 15.0 mph - N/A   Clear
10:55 AM 60.8 °F 46.4 °F 59% 30.26 in 10.0 mi NNW 15.0 mph - N/A   Clear
11:15 AM 60.8 °F 46.4 °F 59% 30.25 in 10.0 mi NW 13.8 mph - N/A   Clear
11:35 AM 62.6 °F 46.4 °F 55% 30.25 in 10.0 mi NW 11.5 mph - N/A   Clear
11:55 AM 62.6 °F 44.6 °F 52% 30.25 in 10.0 mi NNW 10.4 mph - N/A   Clear
12:15 PM 64.4 °F 44.6 °F 49% 30.25 in 10.0 mi North 13.8 mph - N/A   Clear
12:35 PM 64.4 °F 44.6 °F 49% 30.25 in 10.0 mi NW 6.9 mph - N/A   Clear
12:55 PM 64.4 °F 42.8 °F 45% 30.24 in 10.0 mi WNW 8.1 mph - N/A   Clear
1:15 PM 66.2 °F 44.6 °F 46% 30.24 in 10.0 mi North 4.6 mph - N/A   Clear
1:35 PM 66.2 °F 44.6 °F 46% 30.23 in 10.0 mi WNW 8.1 mph - N/A   Clear
1:55 PM 66.2 °F 41.0 °F 40% 30.22 in 10.0 mi NW 6.9 mph - N/A   Clear
2:15 PM 66.2 °F 41.0 °F 40% 30.21 in 10.0 mi WNW 8.1 mph - N/A   Clear
2:35 PM 66.2 °F 41.0 °F 40% 30.20 in 10.0 mi NW 9.2 mph - N/A   Clear
2:55 PM 66.2 °F 41.0 °F 40% 30.19 in 10.0 mi NNW 5.8 mph - N/A   Clear
3:20 PM 68.0 °F 39.2 °F 35% 30.19 in 10.0 mi West 4.6 mph - N/A   Clear
3:35 PM 68.0 °F 42.8 °F 40% 30.18 in 10.0 mi WNW 9.2 mph - N/A   Clear
3:55 PM 68.0 °F 41.0 °F 37% 30.18 in 10.0 mi WNW 6.9 mph - N/A   Clear
4:15 PM 68.0 °F 42.8 °F 40% 30.17 in 10.0 mi WNW 8.1 mph - N/A   Clear
4:35 PM 68.0 °F 44.6 °F 43% 30.17 in 10.0 mi WNW 9.2 mph - N/A   Clear
4:55 PM 68.0 °F 44.6 °F 43% 30.17 in 10.0 mi WNW 6.9 mph - N/A   Clear
5:15 PM 68.0 °F 41.0 °F 37% 30.17 in 10.0 mi West 5.8 mph - N/A   Clear
5:35 PM 66.2 °F 42.8 °F 43% 30.17 in 10.0 mi WNW 6.9 mph - N/A   Clear
5:55 PM 66.2 °F 44.6 °F 46% 30.17 in 10.0 mi SSW 3.5 mph - N/A   Clear
6:15 PM 64.4 °F 48.2 °F 56% 30.17 in 10.0 mi WSW 6.9 mph - N/A   Clear
6:35 PM 64.4 °F 48.2 °F 56% 30.18 in 10.0 mi SW 4.6 mph - N/A   Clear
6:55 PM 62.6 °F 46.4 °F 55% 30.18 in 10.0 mi Calm Calm - N/A   Clear
7:15 PM 60.8 °F 50.0 °F 68% 30.18 in 10.0 mi South 10.4 mph - N/A   Clear
7:35 PM 59.0 °F 48.2 °F 67% 30.18 in 10.0 mi South 8.1 mph - N/A   Clear
7:55 PM 59.0 °F 46.4 °F 63% 30.18 in 10.0 mi NW 9.2 mph - N/A   Clear
8:15 PM 60.8 °F 44.6 °F 55% 30.19 in 10.0 mi NNW 15.0 mph - N/A   Clear
8:35 PM 59.0 °F 44.6 °F 59% 30.20 in 10.0 mi NW 15.0 mph - N/A   Clear
8:55 PM 59.0 °F 42.8 °F 55% 30.21 in 10.0 mi NNW 12.7 mph - N/A   Clear
9:15 PM 59.0 °F 42.8 °F 55% 30.21 in 10.0 mi NNW 11.5 mph - N/A   Clear
9:35 PM 57.2 °F 44.6 °F 63% 30.22 in 10.0 mi NNW 8.1 mph - N/A   Clear
9:55 PM 57.2 °F 44.6 °F 63% 30.22 in 10.0 mi North 5.8 mph - N/A   Clear
10:15 PM 57.2 °F 42.8 °F 59% 30.22 in 10.0 mi NNW 8.1 mph - N/A   Clear
10:35 PM 57.2 °F 41.0 °F 55% 30.23 in 10.0 mi NNW 8.1 mph - N/A   Clear
10:55 PM 57.2 °F 41.0 °F 55% 30.23 in 10.0 mi NNW 8.1 mph - N/A   Clear
11:15 PM 57.2 °F 39.2 °F 51% 30.23 in 10.0 mi NNW 9.2 mph - N/A   Clear
11:40 PM 53.6 °F 42.8 °F 67% 30.22 in 10.0 mi North 6.9 mph - N/A   Clear
11:55 PM 57.2 °F 39.2 °F 51% 30.22 in 10.0 mi North 4.6 mph - N/A   Clear